createdAt,value
2022-10-13T00:01:17.372Z,0.90
2022-10-13T00:03:47.157Z,0.80
2022-10-13T00:06:18.734Z,1.00
2022-10-13T00:08:47.303Z,1.80
2022-10-13T00:11:23.010Z,1.87
2022-10-13T00:13:51.680Z,1.10
2022-10-13T00:16:21.512Z,0.80
2022-10-13T00:18:49.119Z,1.20
2022-10-13T00:21:20.884Z,1.00
2022-10-13T00:23:48.543Z,1.20
2022-10-13T00:26:18.586Z,1.20
2022-10-13T00:28:51.227Z,1.30
2022-10-13T00:31:29.940Z,1.20
2022-10-13T00:34:02.045Z,0.93
2022-10-13T00:36:30.595Z,1.00
2022-10-13T00:38:59.347Z,1.20
2022-10-13T00:41:27.738Z,0.97
2022-10-13T00:44:01.776Z,1.20
2022-10-13T00:46:37.370Z,1.10
2022-10-13T00:49:09.619Z,1.30
2022-10-13T00:51:41.288Z,1.33
2022-10-13T00:54:11.619Z,0.90
2022-10-13T00:56:40.021Z,1.30
2022-10-13T00:59:22.996Z,1.43
2022-10-13T01:01:52.566Z,0.97
2022-10-13T01:04:25.544Z,1.20
2022-10-13T01:06:53.777Z,1.27
2022-10-13T01:09:21.586Z,1.20
2022-10-13T01:12:17.902Z,1.47
2022-10-13T01:15:11.453Z,0.90
2022-10-13T01:17:52.165Z,1.30
2022-10-13T01:20:57.505Z,1.00
2022-10-13T01:23:32.148Z,1.20
2022-10-13T01:26:02.828Z,1.20
2022-10-13T01:28:39.059Z,1.00
2022-10-13T01:31:31.397Z,1.60
2022-10-13T01:34:25.106Z,1.20
2022-10-13T01:37:11.437Z,2.00
2022-10-13T01:39:51.296Z,1.17
2022-10-13T01:42:30.595Z,1.10
2022-10-13T01:45:03.539Z,1.00
2022-10-13T01:47:35.335Z,1.30
2022-10-13T01:50:04.680Z,1.50
2022-10-13T01:52:38.117Z,1.50
2022-10-13T01:55:11.093Z,1.37
2022-10-13T01:57:42.114Z,1.70
2022-10-13T02:00:16.986Z,1.93
2022-10-13T02:03:13.448Z,1.37
2022-10-13T02:05:44.008Z,1.30
2022-10-13T02:08:20.727Z,1.30
2022-10-13T02:10:53.053Z,1.50
2022-10-13T02:13:24.923Z,1.27
2022-10-13T02:15:56.884Z,0.97
2022-10-13T02:18:29.001Z,1.63
2022-10-13T02:20:57.909Z,1.10
2022-10-13T02:23:28.326Z,1.17
2022-10-13T02:25:59.096Z,1.37
2022-10-13T02:28:27.061Z,1.37
2022-10-13T02:30:55.839Z,1.17
2022-10-13T02:33:23.381Z,1.17
2022-10-13T02:35:50.284Z,1.40
2022-10-13T02:38:18.252Z,1.50
2022-10-13T02:40:46.484Z,1.10
2022-10-13T02:43:16.594Z,1.10
2022-10-13T02:45:44.248Z,1.40
2022-10-13T02:48:11.945Z,1.57
2022-10-13T02:50:40.437Z,1.30
2022-10-13T02:53:08.791Z,1.50
2022-10-13T02:55:37.098Z,1.07
2022-10-13T02:58:04.678Z,1.17
2022-10-13T03:00:31.628Z,1.07
2022-10-13T03:03:16.166Z,1.20
2022-10-13T03:05:44.675Z,1.27
2022-10-13T03:08:12.226Z,1.17
2022-10-13T03:10:39.760Z,1.37
2022-10-13T03:13:07.449Z,1.40
2022-10-13T03:15:35.098Z,1.87
2022-10-13T03:18:05.355Z,1.93
2022-10-13T03:20:33.574Z,1.43
2022-10-13T03:23:02.450Z,1.40
2022-10-13T03:25:29.389Z,1.50
2022-10-13T03:27:56.924Z,1.20
2022-10-13T03:30:24.592Z,1.43
2022-10-13T03:32:52.664Z,1.47
2022-10-13T03:35:20.257Z,1.57
2022-10-13T03:37:48.613Z,1.03
2022-10-13T03:40:17.895Z,1.27
2022-10-13T03:42:45.477Z,1.47
2022-10-13T03:45:13.106Z,1.43
2022-10-13T03:47:40.886Z,1.67
2022-10-13T03:50:10.977Z,1.70
2022-10-13T03:52:41.464Z,1.40
2022-10-13T03:55:10.865Z,1.50
2022-10-13T03:57:39.099Z,1.53
2022-10-13T04:00:10.753Z,1.40
2022-10-13T04:02:39.287Z,1.23
2022-10-13T04:05:07.098Z,1.33
2022-10-13T04:07:36.126Z,1.50
2022-10-13T04:10:06.892Z,2.00
2022-10-13T04:12:37.930Z,2.07
2022-10-13T04:15:07.099Z,1.27
2022-10-13T04:17:35.586Z,1.73
2022-10-13T04:20:04.178Z,1.80
2022-10-13T04:22:32.052Z,1.50
2022-10-13T04:24:58.968Z,1.97
2022-10-13T04:27:27.030Z,1.80
2022-10-13T04:29:55.269Z,1.70
2022-10-13T04:32:22.738Z,1.70
2022-10-13T04:34:51.328Z,2.03
2022-10-13T04:37:19.074Z,1.83
2022-10-13T04:39:46.665Z,1.77
2022-10-13T04:42:14.136Z,2.20
2022-10-13T04:44:40.987Z,1.70
2022-10-13T04:47:09.203Z,2.07
2022-10-13T04:49:37.445Z,2.00
2022-10-13T04:52:05.053Z,1.87
2022-10-13T04:54:32.732Z,2.10
2022-10-13T04:56:59.636Z,1.90
2022-10-13T04:59:27.236Z,1.90
2022-10-13T05:01:55.475Z,2.40
2022-10-13T05:04:23.003Z,2.17
2022-10-13T05:07:16.083Z,1.90
2022-10-13T05:09:38.153Z,1.90
2022-10-13T05:12:06.087Z,1.93
2022-10-13T05:14:35.041Z,1.77
2022-10-13T05:17:02.729Z,1.73
2022-10-13T05:19:31.050Z,1.90
2022-10-13T05:21:58.614Z,2.17
2022-10-13T05:24:36.444Z,2.07
2022-10-13T05:27:10.613Z,2.07
2022-10-13T05:29:39.029Z,1.80
2022-10-13T05:32:08.355Z,2.20
2022-10-13T05:34:35.926Z,1.77
2022-10-13T05:37:04.968Z,2.37
2022-10-13T05:39:31.830Z,1.90
2022-10-13T05:41:59.455Z,1.90
2022-10-13T05:44:27.066Z,2.40
2022-10-13T05:46:54.614Z,1.93
2022-10-13T05:49:21.508Z,1.93
2022-10-13T05:52:00.099Z,2.40
2022-10-13T05:54:46.710Z,2.20
2022-10-13T05:57:21.478Z,1.93
2022-10-13T05:59:57.277Z,2.13
2022-10-13T06:02:28.498Z,2.97
2022-10-13T06:04:57.665Z,2.30
2022-10-13T06:07:26.139Z,1.97
2022-10-13T06:09:53.699Z,2.30
2022-10-13T06:12:22.298Z,2.40
2022-10-13T06:14:51.076Z,2.00
2022-10-13T06:17:18.572Z,1.97
2022-10-13T06:19:47.281Z,2.10
2022-10-13T06:22:16.114Z,1.73
2022-10-13T06:24:43.598Z,2.43
2022-10-13T06:27:11.632Z,1.70
2022-10-13T06:29:39.592Z,1.90
2022-10-13T06:32:07.962Z,2.10
2022-10-13T06:34:35.558Z,1.87
2022-10-13T06:37:03.342Z,2.50
2022-10-13T06:39:31.641Z,2.47
2022-10-13T06:41:59.393Z,1.80
2022-10-13T06:44:26.982Z,2.40
2022-10-13T06:46:55.157Z,2.30
2022-10-13T06:49:23.747Z,1.77
2022-10-13T06:51:52.171Z,1.83
2022-10-13T06:54:20.820Z,2.07
2022-10-13T06:56:48.591Z,2.20
2022-10-13T06:59:15.452Z,2.37
2022-10-13T07:01:43.037Z,2.17
2022-10-13T07:04:10.622Z,1.60
2022-10-13T07:06:38.962Z,1.60
2022-10-13T07:09:07.562Z,1.60
2022-10-13T07:11:35.930Z,1.80
2022-10-13T07:14:03.644Z,2.10
2022-10-13T07:16:32.184Z,1.80
2022-10-13T07:18:59.787Z,1.60
2022-10-13T07:21:27.377Z,1.60
2022-10-13T07:23:55.136Z,2.00
2022-10-13T07:26:22.497Z,2.37
2022-10-13T07:28:51.060Z,1.43
2022-10-13T07:31:21.041Z,1.70
2022-10-13T07:33:51.521Z,1.63
2022-10-13T07:36:19.460Z,1.80
2022-10-13T07:38:46.614Z,1.80
2022-10-13T07:41:15.727Z,1.57
2022-10-13T07:43:43.961Z,2.20
2022-10-13T07:46:13.134Z,1.90
2022-10-13T07:48:41.486Z,2.47
2022-10-13T07:51:12.497Z,2.07
2022-10-13T07:53:41.833Z,2.27
2022-10-13T07:56:12.035Z,2.00
2022-10-13T07:58:43.367Z,2.07
2022-10-13T08:01:11.766Z,2.50
2022-10-13T08:03:42.931Z,2.00
2022-10-13T08:06:14.481Z,2.13
2022-10-13T08:08:42.041Z,1.80
2022-10-13T08:11:16.174Z,2.10
2022-10-13T08:13:52.786Z,2.37
2022-10-13T08:16:20.973Z,1.97
2022-10-13T08:18:49.072Z,2.17
2022-10-13T08:21:57.172Z,2.17
2022-10-13T08:24:11.079Z,1.87
2022-10-13T08:26:39.130Z,1.83
2022-10-13T08:29:21.410Z,2.17
2022-10-13T08:31:54.356Z,2.60
2022-10-13T08:34:24.971Z,2.00
2022-10-13T08:36:56.221Z,1.57
2022-10-13T08:39:24.778Z,1.90
2022-10-13T08:41:54.341Z,2.43
2022-10-13T08:45:10.507Z,1.53
2022-10-13T08:47:27.880Z,1.87
2022-10-13T08:50:00.308Z,2.50
2022-10-13T08:52:44.873Z,1.73
2022-10-13T08:55:23.102Z,2.00
2022-10-13T08:57:51.424Z,2.33
2022-10-13T09:00:20.080Z,1.70
2022-10-13T09:02:49.741Z,2.10
2022-10-13T09:05:35.231Z,1.90
2022-10-13T09:08:06.513Z,1.87
2022-10-13T09:10:34.070Z,1.90
2022-10-13T09:13:02.759Z,2.30
2022-10-13T09:15:30.356Z,2.30
2022-10-13T09:18:12.243Z,1.70
2022-10-13T09:20:40.641Z,1.77
2022-10-13T09:23:19.685Z,1.87
2022-10-13T09:25:50.059Z,1.73
2022-10-13T09:28:32.261Z,1.87
2022-10-13T09:31:16.170Z,1.70
2022-10-13T09:33:45.254Z,1.60
2022-10-13T09:36:16.929Z,1.40
2022-10-13T09:39:15.346Z,1.43
2022-10-13T09:41:44.528Z,1.60
2022-10-13T09:44:12.778Z,1.50
2022-10-13T09:46:58.867Z,1.10
2022-10-13T09:49:35.058Z,1.90
2022-10-13T09:52:04.765Z,1.70
2022-10-13T09:54:56.540Z,1.57
2022-10-13T09:57:49.151Z,1.50
2022-10-13T10:00:28.134Z,1.30
2022-10-13T10:03:33.785Z,0.87
2022-10-13T10:06:07.705Z,1.30
2022-10-13T10:09:01.650Z,1.47
2022-10-13T10:11:29.858Z,1.60
2022-10-13T10:13:58.778Z,1.73
2022-10-13T10:16:44.903Z,1.67
2022-10-13T10:19:40.516Z,2.07
2022-10-13T10:22:23.023Z,1.67
2022-10-13T10:25:04.926Z,1.30
2022-10-13T10:27:48.945Z,1.20
2022-10-13T10:30:18.593Z,1.23
2022-10-13T10:33:05.863Z,3.90
2022-10-13T10:35:50.513Z,0.90
2022-10-13T10:38:44.017Z,1.40
2022-10-13T10:41:45.150Z,0.83
2022-10-13T10:44:25.162Z,1.17
2022-10-13T10:46:59.402Z,0.80
2022-10-13T10:49:40.246Z,1.33
2022-10-13T10:52:10.894Z,1.50
2022-10-13T10:54:49.542Z,1.40
2022-10-13T10:57:26.246Z,1.37
2022-10-13T11:00:12.893Z,1.17
2022-10-13T11:02:58.861Z,1.57
2022-10-13T11:06:04.224Z,1.40
2022-10-13T11:08:47.517Z,1.20
2022-10-13T11:11:26.732Z,1.20
2022-10-13T11:13:59.858Z,1.73
2022-10-13T11:16:33.337Z,1.63
2022-10-13T11:19:25.591Z,1.97
2022-10-13T11:21:59.458Z,2.13
2022-10-13T11:24:42.228Z,1.50
2022-10-13T11:27:19.653Z,1.17
2022-10-13T11:29:49.114Z,1.77
2022-10-13T11:32:26.977Z,1.60
2022-10-13T11:35:14.718Z,1.53
2022-10-13T11:37:51.712Z,1.43
2022-10-13T11:41:07.711Z,1.50
2022-10-13T11:43:53.271Z,1.67
2022-10-13T11:46:25.003Z,1.50
2022-10-13T11:49:10.720Z,1.63
2022-10-13T11:52:16.252Z,1.87
2022-10-13T11:54:55.689Z,1.87
2022-10-13T11:57:27.914Z,1.37
2022-10-13T11:59:57.290Z,1.40
2022-10-13T12:02:27.417Z,1.80
2022-10-13T12:05:05.656Z,1.83
2022-10-13T12:07:37.335Z,1.60
2022-10-13T12:10:08.819Z,1.33
2022-10-13T12:12:36.842Z,1.50
2022-10-13T12:15:33.860Z,1.40
2022-10-13T12:18:03.074Z,1.67
2022-10-13T12:20:33.381Z,1.60
2022-10-13T12:23:00.959Z,1.77
2022-10-13T12:25:30.875Z,1.90
2022-10-13T12:28:00.325Z,1.47
2022-10-13T12:30:37.165Z,1.90
2022-10-13T12:33:22.750Z,2.03
2022-10-13T12:35:49.621Z,1.67
2022-10-13T12:38:21.616Z,1.40
2022-10-13T12:40:51.552Z,1.60
2022-10-13T12:43:25.392Z,1.60
2022-10-13T12:45:53.098Z,1.80
2022-10-13T12:48:34.763Z,1.30
2022-10-13T12:51:14.314Z,1.60
2022-10-13T12:53:43.113Z,1.60
2022-10-13T12:56:32.320Z,1.47
2022-10-13T12:59:00.891Z,1.47
2022-10-13T13:01:34.689Z,1.43
2022-10-13T13:04:27.549Z,1.93
2022-10-13T13:06:58.558Z,1.10
2022-10-13T13:09:34.870Z,1.30
2022-10-13T13:12:12.527Z,1.60
2022-10-13T13:14:45.346Z,1.97
2022-10-13T13:17:27.628Z,1.47
2022-10-13T13:20:21.177Z,1.70
2022-10-13T13:22:50.797Z,1.67
2022-10-13T13:25:19.188Z,1.60
2022-10-13T13:27:46.797Z,1.83
2022-10-13T13:30:18.088Z,1.30
2022-10-13T13:32:47.161Z,1.50
2022-10-13T13:35:17.073Z,1.70
2022-10-13T13:37:49.636Z,1.70
2022-10-13T13:40:20.033Z,1.53
2022-10-13T13:42:48.286Z,1.73
2022-10-13T13:45:17.597Z,1.83
2022-10-13T13:47:45.811Z,1.70
2022-10-13T13:50:20.817Z,1.33
2022-10-13T13:52:49.879Z,1.60
2022-10-13T13:55:19.377Z,1.60
2022-10-13T13:57:47.634Z,1.90
2022-10-13T14:00:17.285Z,1.67
2022-10-13T14:02:46.095Z,1.37
2022-10-13T14:05:15.127Z,1.93
2022-10-13T14:07:43.669Z,1.40
2022-10-13T14:10:12.127Z,2.07
2022-10-13T14:12:40.693Z,2.00
2022-10-13T14:15:08.924Z,1.40
2022-10-13T14:17:37.422Z,1.90
2022-10-13T14:20:06.385Z,1.80
2022-10-13T14:22:33.906Z,2.07
2022-10-13T14:25:00.889Z,1.50
2022-10-13T14:27:27.846Z,1.57
2022-10-13T14:29:56.691Z,1.40
2022-10-13T14:32:24.906Z,2.10
2022-10-13T14:34:53.162Z,1.73
2022-10-13T14:37:23.175Z,1.70
2022-10-13T14:39:52.124Z,1.40
2022-10-13T14:42:21.674Z,1.70
2022-10-13T14:44:50.875Z,1.70
2022-10-13T14:47:18.807Z,2.63
2022-10-13T14:49:48.590Z,1.40
2022-10-13T14:52:16.958Z,1.57
2022-10-13T14:54:45.386Z,1.80
2022-10-13T14:57:16.145Z,1.50
2022-10-13T14:59:45.888Z,1.83
2022-10-13T15:02:13.996Z,1.53
2022-10-13T15:04:42.145Z,1.77
2022-10-13T15:07:09.637Z,1.33
2022-10-13T15:09:52.178Z,2.00
2022-10-13T15:12:22.003Z,1.87
2022-10-13T15:14:49.180Z,1.50
2022-10-13T15:17:16.771Z,1.63
2022-10-13T15:19:44.327Z,1.17
2022-10-13T15:22:13.473Z,1.50
2022-10-13T15:24:41.108Z,1.63
2022-10-13T15:27:09.318Z,1.53
2022-10-13T15:29:36.915Z,1.80
2022-10-13T15:32:12.848Z,2.33
2022-10-13T15:34:40.475Z,1.80
2022-10-13T15:37:08.268Z,1.60
2022-10-13T15:39:36.016Z,2.03
2022-10-13T15:42:03.840Z,2.00
2022-10-13T15:44:40.716Z,1.80
2022-10-13T15:47:20.676Z,1.77
2022-10-13T15:49:49.611Z,1.60
2022-10-13T15:52:17.120Z,1.67
2022-10-13T15:54:44.981Z,2.03
2022-10-13T15:57:14.554Z,1.63
2022-10-13T15:59:42.089Z,1.87
2022-10-13T16:02:10.989Z,2.10
2022-10-13T16:04:39.243Z,1.50
2022-10-13T16:07:07.549Z,1.17
2022-10-13T16:09:36.529Z,1.30
2022-10-13T16:12:04.234Z,2.07
2022-10-13T16:14:32.437Z,2.07
2022-10-13T16:17:00.126Z,1.73
2022-10-13T16:19:27.914Z,1.73
2022-10-13T16:21:55.426Z,1.60
2022-10-13T16:24:23.303Z,1.80
2022-10-13T16:26:50.196Z,2.13
2022-10-13T16:29:18.655Z,1.60
2022-10-13T16:31:45.638Z,1.60
2022-10-13T16:34:13.325Z,1.90
2022-10-13T16:36:41.570Z,1.67
2022-10-13T16:39:09.115Z,1.67
2022-10-13T16:41:36.128Z,2.30
2022-10-13T16:44:03.822Z,1.87
2022-10-13T16:46:33.534Z,1.70
2022-10-13T16:49:01.227Z,2.83
2022-10-13T16:51:29.876Z,2.30
2022-10-13T16:54:03.956Z,1.90
2022-10-13T16:56:32.118Z,2.37
2022-10-13T16:59:01.862Z,2.43
2022-10-13T17:01:30.096Z,1.90
2022-10-13T17:03:59.103Z,2.43
2022-10-13T17:06:29.077Z,2.43
2022-10-13T17:09:00.527Z,1.90
2022-10-13T17:11:30.525Z,2.20
2022-10-13T17:13:59.748Z,2.37
2022-10-13T17:16:27.114Z,2.40
2022-10-13T17:18:54.861Z,2.43
2022-10-13T17:21:23.065Z,2.70
2022-10-13T17:23:51.494Z,2.30
2022-10-13T17:26:21.204Z,2.33
2022-10-13T17:28:49.243Z,2.63
2022-10-13T17:31:21.997Z,1.97
2022-10-13T17:33:51.082Z,2.30
2022-10-13T17:36:24.097Z,2.90
2022-10-13T17:38:54.093Z,2.60
2022-10-13T17:41:23.053Z,2.90
2022-10-13T17:43:52.255Z,2.67
2022-10-13T17:46:40.311Z,2.30
2022-10-13T17:49:11.173Z,2.53
2022-10-13T17:51:40.947Z,2.77
2022-10-13T17:54:15.262Z,3.07
2022-10-13T17:56:45.297Z,2.93
2022-10-13T17:59:13.524Z,2.87
2022-10-13T18:01:42.077Z,3.60
2022-10-13T18:04:16.501Z,2.77
2022-10-13T18:06:45.611Z,2.63
2022-10-13T18:09:16.048Z,3.07
2022-10-13T18:11:50.241Z,2.50
2022-10-13T18:14:21.474Z,2.77
2022-10-13T18:16:51.602Z,2.73
2022-10-13T18:19:19.582Z,3.50
2022-10-13T18:21:48.554Z,2.90
2022-10-13T18:24:16.820Z,2.90
2022-10-13T18:26:43.731Z,3.23
2022-10-13T18:29:12.290Z,3.70
2022-10-13T18:31:41.884Z,2.87
2022-10-13T18:34:15.987Z,2.90
2022-10-13T18:36:47.344Z,3.30
2022-10-13T18:39:18.266Z,2.93
2022-10-13T18:41:46.952Z,3.83
2022-10-13T18:44:15.637Z,3.30
2022-10-13T18:46:44.250Z,2.97
2022-10-13T18:49:14.223Z,2.83
2022-10-13T18:51:42.645Z,3.43
2022-10-13T18:54:10.434Z,3.07
2022-10-13T18:56:38.617Z,3.20
2022-10-13T18:59:07.381Z,3.50
2022-10-13T19:01:37.701Z,3.10
2022-10-13T19:04:06.840Z,3.03
2022-10-13T19:06:35.524Z,3.33
2022-10-13T19:09:06.670Z,3.20
2022-10-13T19:11:34.643Z,4.10
2022-10-13T19:14:02.809Z,3.63
2022-10-13T19:16:31.972Z,3.23
2022-10-13T19:19:00.195Z,3.27
2022-10-13T19:21:27.978Z,3.87
2022-10-13T19:23:59.723Z,3.43
2022-10-13T19:26:32.677Z,3.27
2022-10-13T19:29:08.467Z,3.63
2022-10-13T19:31:38.546Z,3.37
2022-10-13T19:34:08.360Z,4.13
2022-10-13T19:36:40.275Z,3.53
2022-10-13T19:39:27.424Z,3.37
2022-10-13T19:41:57.834Z,4.13
2022-10-13T19:44:26.502Z,3.47
2022-10-13T19:46:55.574Z,3.50
2022-10-13T19:49:26.418Z,4.33
2022-10-13T19:51:54.897Z,3.73
2022-10-13T19:54:22.764Z,3.57
2022-10-13T19:56:51.493Z,3.53
2022-10-13T19:59:19.575Z,2.93
2022-10-13T20:01:47.966Z,3.37
2022-10-13T20:04:17.916Z,3.90
2022-10-13T20:06:47.437Z,4.00
2022-10-13T20:09:15.587Z,3.20
2022-10-13T20:11:49.429Z,3.87
2022-10-13T20:14:18.622Z,4.17
2022-10-13T20:16:46.605Z,4.00
2022-10-13T20:19:16.497Z,3.70
2022-10-13T20:21:44.074Z,3.73
2022-10-13T20:24:13.062Z,3.87
2022-10-13T20:26:41.113Z,3.77
2022-10-13T20:29:09.086Z,3.47
2022-10-13T20:31:36.748Z,3.83
2022-10-13T20:34:05.002Z,3.87
2022-10-13T20:36:37.519Z,3.70
2022-10-13T20:39:06.852Z,4.03
2022-10-13T20:41:33.785Z,4.73
2022-10-13T20:44:03.485Z,4.07
2022-10-13T20:46:33.614Z,4.03
2022-10-13T20:49:16.611Z,3.63
2022-10-13T20:51:45.423Z,4.07
2022-10-13T20:54:14.466Z,5.47
2022-10-13T20:56:43.262Z,5.47
2022-10-13T20:59:14.543Z,3.97
2022-10-13T21:01:43.288Z,4.23
2022-10-13T21:04:11.579Z,4.30
2022-10-13T21:06:41.202Z,5.17
2022-10-13T21:09:10.158Z,6.90
2022-10-13T21:11:39.673Z,4.80
2022-10-13T21:14:09.743Z,7.83
2022-10-13T21:16:38.510Z,5.30
2022-10-13T21:19:07.786Z,6.30
2022-10-13T21:21:38.205Z,4.63
2022-10-13T21:24:07.686Z,4.83
2022-10-13T21:26:35.962Z,5.00
2022-10-13T21:29:04.134Z,4.67
2022-10-13T21:31:31.794Z,5.50
2022-10-13T21:34:01.245Z,5.63
2022-10-13T21:36:30.678Z,5.43
2022-10-13T21:39:02.539Z,4.73
2022-10-13T21:41:29.610Z,4.90
2022-10-13T21:43:57.992Z,5.00
2022-10-13T21:46:29.449Z,5.10
2022-10-13T21:48:58.722Z,4.43
2022-10-13T21:51:30.956Z,4.10
2022-10-13T21:54:01.154Z,5.07
2022-10-13T21:56:30.738Z,5.97
2022-10-13T21:58:58.392Z,4.60
2022-10-13T22:01:27.337Z,6.50
2022-10-13T22:04:00.373Z,5.07
2022-10-13T22:06:32.046Z,4.90
2022-10-13T22:09:02.604Z,4.80
2022-10-13T22:11:32.723Z,4.63
2022-10-13T22:14:00.626Z,5.00
2022-10-13T22:16:33.755Z,4.57
2022-10-13T22:19:01.950Z,6.23
2022-10-13T22:21:34.343Z,4.47
2022-10-13T22:24:04.945Z,4.90
2022-10-13T22:26:37.034Z,5.90
2022-10-13T22:29:07.484Z,4.40
2022-10-13T22:31:36.321Z,5.53
2022-10-13T22:34:05.232Z,5.00
2022-10-13T22:36:35.007Z,4.67
2022-10-13T22:39:04.452Z,5.17
2022-10-13T22:41:33.710Z,5.03
2022-10-13T22:44:04.008Z,4.93
2022-10-13T22:46:34.754Z,5.77
2022-10-13T22:49:04.139Z,5.90
2022-10-13T22:51:34.419Z,4.93
2022-10-13T22:54:02.872Z,4.77
2022-10-13T22:56:31.532Z,5.43
2022-10-13T22:59:07.508Z,5.10
2022-10-13T23:01:35.915Z,4.90
2022-10-13T23:04:04.183Z,5.20
2022-10-13T23:06:33.640Z,5.23
2022-10-13T23:09:03.644Z,6.23
2022-10-13T23:11:32.061Z,5.43
2022-10-13T23:14:02.398Z,5.47
2022-10-13T23:16:31.768Z,5.47
2022-10-13T23:19:00.160Z,5.00
2022-10-13T23:21:29.277Z,5.20
2022-10-13T23:23:59.742Z,6.10
2022-10-13T23:26:29.240Z,5.80
2022-10-13T23:28:57.877Z,5.47
2022-10-13T23:31:29.028Z,5.17
2022-10-13T23:33:57.215Z,5.07
2022-10-13T23:36:26.941Z,5.03
2022-10-13T23:38:56.766Z,5.10
2022-10-13T23:41:26.219Z,5.23
2022-10-13T23:43:54.712Z,5.27
2022-10-13T23:46:23.941Z,5.50
2022-10-13T23:48:52.903Z,5.10
2022-10-13T23:51:23.785Z,6.10
2022-10-13T23:53:52.972Z,5.10
2022-10-13T23:56:22.459Z,5.93
2022-10-13T23:58:50.778Z,5.60
